createdAt,value
2019-03-04T00:02:22.935Z,99745.33
2019-03-04T00:04:52.207Z,99734.14
2019-03-04T00:07:21.401Z,99728.48
2019-03-04T00:09:50.610Z,99723.22
2019-03-04T00:12:19.866Z,99716.97
2019-03-04T00:14:49.146Z,99713.66
2019-03-04T00:17:18.343Z,99694.81
2019-03-04T00:19:47.586Z,99676.20
2019-03-04T00:22:16.816Z,99687.27
2019-03-04T00:24:46.076Z,99701.00
2019-03-04T00:27:15.280Z,99700.92
2019-03-04T00:29:44.543Z,99700.66
2019-03-04T00:32:13.729Z,99692.23
2019-03-04T00:34:43.068Z,99700.55
2019-03-04T00:37:12.248Z,99700.00
2019-03-04T00:39:41.544Z,99697.34
2019-03-04T00:42:10.876Z,99709.75
2019-03-04T00:44:40.145Z,99726.23
2019-03-04T00:47:09.368Z,99716.30
2019-03-04T00:49:38.646Z,99722.73
2019-03-04T00:52:07.845Z,99727.48
2019-03-04T00:54:37.092Z,99741.22
2019-03-04T00:57:06.332Z,99751.63
2019-03-04T00:59:35.554Z,99755.61
2019-03-04T01:02:04.747Z,99731.75
2019-03-04T01:04:33.972Z,99751.56
2019-03-04T01:07:03.464Z,99730.83
2019-03-04T01:09:32.754Z,99729.02
2019-03-04T01:12:01.942Z,99730.64
2019-03-04T01:14:31.133Z,99729.61
2019-03-04T01:17:00.467Z,99718.23
2019-03-04T01:19:29.756Z,99713.41
2019-03-04T01:21:58.981Z,99701.08
2019-03-04T01:24:28.184Z,99695.88
2019-03-04T01:26:57.430Z,99688.85
2019-03-04T01:29:26.682Z,99679.77
2019-03-04T01:31:55.872Z,99674.28
2019-03-04T01:34:25.172Z,99671.63
2019-03-04T01:36:54.392Z,99656.94
2019-03-04T01:39:23.666Z,99629.03
2019-03-04T01:41:52.842Z,99620.40
2019-03-04T01:44:22.066Z,99618.71
2019-03-04T01:46:51.349Z,99623.90
2019-03-04T01:49:23.304Z,99633.86
2019-03-04T01:51:52.392Z,99626.64
2019-03-04T01:54:21.618Z,99607.05
2019-03-04T01:56:50.822Z,99570.32
2019-03-04T01:59:20.046Z,99591.34
2019-03-04T02:01:49.249Z,99596.53
2019-03-04T02:04:18.428Z,99580.34
2019-03-04T02:06:47.676Z,99557.03
2019-03-04T02:09:16.926Z,99553.82
2019-03-04T02:11:46.194Z,99554.10
2019-03-04T02:14:15.413Z,99567.64
2019-03-04T02:16:44.698Z,99559.33
2019-03-04T02:19:13.913Z,99563.30
2019-03-04T02:21:43.127Z,99563.19
2019-03-04T02:24:19.243Z,99556.27
2019-03-04T02:26:48.475Z,99543.58
2019-03-04T02:29:17.696Z,99551.73
2019-03-04T02:31:46.887Z,99532.69
2019-03-04T02:34:16.161Z,99516.38
2019-03-04T02:36:45.375Z,99504.08
2019-03-04T02:39:14.671Z,99499.61
2019-03-04T02:41:43.957Z,99504.35
2019-03-04T02:44:13.168Z,99495.07
2019-03-04T02:46:42.463Z,99486.63
2019-03-04T02:49:11.768Z,99486.99
2019-03-04T02:51:40.948Z,99472.89
2019-03-04T02:54:10.178Z,99465.89
2019-03-04T02:56:39.464Z,99462.13
2019-03-04T02:59:08.656Z,99460.23
2019-03-04T03:01:37.879Z,99457.99
2019-03-04T03:04:07.112Z,99450.60
2019-03-04T03:06:36.372Z,99454.29
2019-03-04T03:09:06.871Z,99436.58
2019-03-04T03:11:36.074Z,99427.91
2019-03-04T03:14:05.372Z,99395.33
2019-03-04T03:16:34.694Z,99409.15
2019-03-04T03:19:03.881Z,99407.55
2019-03-04T03:21:33.129Z,99410.31
2019-03-04T03:24:02.375Z,99410.48
2019-03-04T03:26:31.638Z,99397.44
2019-03-04T03:29:00.834Z,99381.65
2019-03-04T03:31:30.117Z,99378.72
2019-03-04T03:33:59.367Z,99370.84
2019-03-04T03:36:28.627Z,99356.74
2019-03-04T03:38:57.877Z,99360.99
2019-03-04T03:41:27.207Z,99348.19
2019-03-04T03:43:56.409Z,99348.02
2019-03-04T03:46:25.632Z,99328.79
2019-03-04T03:48:54.868Z,99323.88
2019-03-04T03:51:24.063Z,99357.47
2019-03-04T03:53:53.257Z,99343.30
2019-03-04T03:56:22.465Z,99350.75
2019-03-04T03:58:51.659Z,99348.02
2019-03-04T04:01:20.874Z,99338.62
2019-03-04T04:03:50.052Z,99312.56
2019-03-04T04:06:19.287Z,99304.97
2019-03-04T04:08:48.479Z,99293.80
2019-03-04T04:11:17.812Z,99300.03
2019-03-04T04:13:46.974Z,99300.42
2019-03-04T04:16:16.200Z,99304.19
2019-03-04T04:18:45.412Z,99298.98
2019-03-04T04:21:14.765Z,99280.05
2019-03-04T04:23:43.956Z,99275.69
2019-03-04T04:26:22.617Z,99257.13
2019-03-04T04:28:59.097Z,99253.48
2019-03-04T04:31:28.320Z,99257.03
2019-03-04T04:33:57.531Z,99246.06
2019-03-04T04:36:26.889Z,99247.00
2019-03-04T04:38:56.136Z,99247.00
2019-03-04T04:41:25.354Z,99226.48
2019-03-04T04:43:54.645Z,99226.48
2019-03-04T04:46:49.552Z,99214.08
2019-03-04T04:49:18.869Z,99192.93
2019-03-04T04:51:48.166Z,99181.09
2019-03-04T04:54:17.436Z,99162.27
2019-03-04T04:56:46.669Z,99156.48
2019-03-04T04:59:15.838Z,99157.27
2019-03-04T05:01:45.058Z,99178.53
2019-03-04T05:04:14.355Z,99176.70
2019-03-04T05:06:43.610Z,99153.03
2019-03-04T05:09:12.818Z,99141.38
2019-03-04T05:11:42.031Z,99135.48
2019-03-04T05:14:11.347Z,99111.97
2019-03-04T05:16:40.556Z,99081.70
2019-03-04T05:19:09.840Z,99095.63
2019-03-04T05:21:39.082Z,99094.52
2019-03-04T05:24:08.518Z,99071.42
2019-03-04T05:26:37.758Z,99070.79
2019-03-04T05:29:07.053Z,99064.11
2019-03-04T05:31:36.350Z,99053.34
2019-03-04T05:34:05.550Z,99049.84
2019-03-04T05:36:34.746Z,99047.69
2019-03-04T05:39:05.502Z,99028.13
2019-03-04T05:41:34.782Z,99008.80
2019-03-04T05:44:04.004Z,98952.91
2019-03-04T05:46:33.247Z,98952.91
2019-03-04T05:49:02.436Z,98941.11
2019-03-04T05:51:31.680Z,98942.30
2019-03-04T05:54:00.907Z,98977.27
2019-03-04T05:56:30.090Z,98977.75
2019-03-04T05:58:59.397Z,98946.98
2019-03-04T06:01:33.354Z,98936.39
2019-03-04T06:04:07.705Z,98941.47
2019-03-04T06:07:04.750Z,98950.42
2019-03-04T06:09:33.948Z,98936.88
2019-03-04T06:12:03.187Z,98913.11
2019-03-04T06:14:32.410Z,98925.41
2019-03-04T06:17:01.632Z,98892.41
2019-03-04T06:19:30.982Z,98895.80
2019-03-04T06:22:00.363Z,98889.92
2019-03-04T06:24:29.591Z,98882.33
2019-03-04T06:26:58.868Z,98879.61
2019-03-04T06:29:28.066Z,98884.67
2019-03-04T06:31:57.266Z,98858.63
2019-03-04T06:34:26.504Z,98870.09
2019-03-04T06:36:55.738Z,98881.69
2019-03-04T06:39:41.108Z,98873.72
2019-03-04T06:42:10.382Z,98873.72
2019-03-04T06:44:39.616Z,98861.17
2019-03-04T06:47:08.934Z,98864.42
2019-03-04T06:49:38.249Z,98843.31
2019-03-04T06:52:07.946Z,98843.31
2019-03-04T06:55:18.504Z,98856.81
2019-03-04T06:57:52.443Z,98826.41
2019-03-04T07:00:45.174Z,98826.41
2019-03-04T07:03:27.708Z,98837.52
2019-03-04T07:05:56.950Z,98838.84
2019-03-04T07:09:11.712Z,98819.52
2019-03-04T07:11:45.449Z,98808.99
2019-03-04T07:14:14.686Z,98823.25
2019-03-04T07:16:47.378Z,98786.91
2019-03-04T07:19:18.762Z,98841.11
2019-03-04T07:21:48.594Z,98841.11
2019-03-04T07:24:17.878Z,98841.59
2019-03-04T07:26:47.117Z,98808.77
2019-03-04T07:29:16.350Z,98788.61
2019-03-04T07:31:45.583Z,98773.25
2019-03-04T07:34:14.813Z,98778.31
2019-03-04T07:36:44.033Z,98770.33
2019-03-04T07:39:16.653Z,98740.84
2019-03-04T07:41:47.806Z,98763.67
2019-03-04T07:44:17.013Z,98741.23
2019-03-04T07:46:46.275Z,98713.33
2019-03-04T07:49:15.494Z,98704.89
2019-03-04T07:51:44.774Z,98712.09
2019-03-04T07:54:14.028Z,98709.09
2019-03-04T07:56:43.278Z,98703.92
2019-03-04T07:59:12.508Z,98705.30
2019-03-04T08:01:41.732Z,98721.18
2019-03-04T08:04:10.920Z,98681.27
2019-03-04T08:06:40.242Z,98670.19
2019-03-04T08:09:57.497Z,98690.98
2019-03-04T08:12:57.058Z,98682.69
2019-03-04T08:15:28.584Z,98695.91
2019-03-04T08:17:57.824Z,98697.08
2019-03-04T08:20:27.054Z,98743.16
2019-03-04T08:22:56.332Z,98877.20
2019-03-04T08:25:25.607Z,98950.51
2019-03-04T08:27:54.822Z,98917.98
2019-03-04T08:30:24.095Z,98914.47
2019-03-04T08:32:53.314Z,98916.20
2019-03-04T08:35:22.510Z,98938.54
2019-03-04T08:37:51.706Z,98936.95
2019-03-04T08:40:21.012Z,98926.77
2019-03-04T08:42:50.352Z,98916.95
2019-03-04T08:45:19.960Z,98939.34
2019-03-04T08:47:49.260Z,98909.42
2019-03-04T08:50:18.621Z,98918.58
2019-03-04T08:52:47.816Z,98682.98
2019-03-04T08:55:17.319Z,98873.35
2019-03-04T08:57:46.642Z,98896.99
2019-03-04T09:00:20.952Z,98884.44
2019-03-04T09:02:50.201Z,98897.03
2019-03-04T09:05:19.444Z,98870.90
2019-03-04T09:07:48.739Z,98913.53
2019-03-04T09:10:22.749Z,98896.88
2019-03-04T09:12:51.992Z,98897.25
2019-03-04T09:15:21.369Z,98910.79
2019-03-04T09:17:50.561Z,98854.17
2019-03-04T09:20:19.916Z,98871.15
2019-03-04T09:22:49.173Z,98864.85
2019-03-04T09:25:30.680Z,98881.61
2019-03-04T09:27:56.868Z,98880.00
2019-03-04T09:30:26.086Z,98880.63
2019-03-04T09:32:55.332Z,98869.14
2019-03-04T09:35:24.586Z,98838.77
2019-03-04T09:37:53.927Z,98874.49
2019-03-04T09:40:23.170Z,98861.17
2019-03-04T09:42:52.380Z,98846.12
2019-03-04T09:45:21.741Z,98831.17
2019-03-04T09:47:50.984Z,98849.17
2019-03-04T09:50:20.261Z,98875.86
2019-03-04T09:52:49.561Z,98850.28
2019-03-04T09:55:18.785Z,98846.03
2019-03-04T09:57:48.035Z,98818.77
2019-03-04T10:00:34.792Z,98814.98
2019-03-04T10:03:29.376Z,98828.50
2019-03-04T10:06:29.208Z,98814.80
2019-03-04T10:09:07.594Z,98820.48
2019-03-04T10:12:13.330Z,98816.36
2019-03-04T10:15:14.953Z,98816.36
2019-03-04T10:17:56.743Z,98815.52
2019-03-04T10:21:02.567Z,98836.30
2019-03-04T10:24:04.302Z,98822.98
2019-03-04T10:27:17.212Z,98873.83
2019-03-04T10:30:22.022Z,98873.83
2019-03-04T10:33:27.724Z,98855.84
2019-03-04T10:36:35.882Z,98842.64
2019-03-04T10:39:44.878Z,98848.34
2019-03-04T10:42:54.718Z,98860.34
2019-03-04T10:45:39.740Z,98885.64
2019-03-04T10:48:09.034Z,98873.23
2019-03-04T10:50:38.318Z,98890.69
2019-03-04T10:53:07.492Z,98872.41
2019-03-04T10:55:41.928Z,98826.05
2019-03-04T10:58:06.218Z,98838.52
2019-03-04T11:00:35.400Z,98838.52
2019-03-04T11:03:04.601Z,98845.04
2019-03-04T11:05:33.820Z,98845.04
2019-03-04T11:08:03.097Z,98834.30
2019-03-04T11:10:32.633Z,98836.06
2019-03-04T11:13:05.517Z,98863.94
2019-03-04T11:15:31.539Z,98826.94
2019-03-04T11:18:00.721Z,98826.94
2019-03-04T11:20:29.966Z,98829.67
2019-03-04T11:22:59.168Z,98809.55
2019-03-04T11:25:28.403Z,98818.31
2019-03-04T11:27:57.618Z,98818.31
2019-03-04T11:30:28.086Z,98842.63
2019-03-04T11:32:57.320Z,98853.31
2019-03-04T11:35:26.542Z,98821.78
2019-03-04T11:37:55.808Z,98796.48
2019-03-04T11:40:28.585Z,98807.41
2019-03-04T11:42:57.808Z,98813.47
2019-03-04T11:45:27.042Z,98785.73
2019-03-04T11:47:56.228Z,98809.48
2019-03-04T11:50:25.554Z,98795.97
2019-03-04T11:52:54.838Z,98821.11
2019-03-04T11:55:24.837Z,98868.19
2019-03-04T11:57:54.028Z,98864.39
2019-03-04T12:00:30.258Z,98864.39
2019-03-04T12:02:59.461Z,98878.50
2019-03-04T12:05:28.742Z,98930.89
2019-03-04T12:07:58.015Z,98856.11
2019-03-04T12:10:27.316Z,98729.63
2019-03-04T12:12:56.528Z,98876.80
2019-03-04T12:15:25.746Z,98856.76
2019-03-04T12:17:54.975Z,98846.77
2019-03-04T12:20:24.222Z,98841.26
2019-03-04T12:22:53.498Z,98833.32
2019-03-04T12:25:22.708Z,98779.23
2019-03-04T12:27:52.040Z,98878.20
2019-03-04T12:30:21.269Z,98818.47
2019-03-04T12:32:51.083Z,98814.33
2019-03-04T12:35:20.312Z,98806.30
2019-03-04T12:37:49.654Z,98806.30
2019-03-04T12:40:19.030Z,98804.97
2019-03-04T12:42:48.255Z,98781.09
2019-03-04T12:45:17.454Z,98800.98
2019-03-04T12:47:46.756Z,98789.42
2019-03-04T12:50:18.248Z,98799.26
2019-03-04T12:52:47.504Z,98781.80
2019-03-04T12:55:16.763Z,98794.30
2019-03-04T12:57:46.143Z,98781.02
2019-03-04T13:00:18.253Z,98789.49
2019-03-04T13:02:54.316Z,98798.47
2019-03-04T13:05:16.749Z,98801.41
2019-03-04T13:07:46.041Z,98840.77
2019-03-04T13:10:15.322Z,98959.44
2019-03-04T13:12:44.655Z,98959.44
2019-03-04T13:15:21.928Z,98911.19
2019-03-04T13:17:51.180Z,98942.98
2019-03-04T13:20:20.382Z,98937.34
2019-03-04T13:22:49.611Z,98952.98
2019-03-04T13:25:18.918Z,98952.99
2019-03-04T13:27:48.110Z,98940.55
2019-03-04T13:30:19.447Z,98961.36
2019-03-04T13:32:48.802Z,98924.25
2019-03-04T13:35:24.423Z,98929.50
2019-03-04T13:37:49.206Z,98948.73
2019-03-04T13:40:18.506Z,98946.63
2019-03-04T13:42:49.549Z,98970.08
2019-03-04T13:45:16.948Z,98968.51
2019-03-04T13:47:46.212Z,98970.52
2019-03-04T13:50:17.244Z,98989.65
2019-03-04T13:52:46.473Z,98963.72
2019-03-04T13:55:16.111Z,98975.78
2019-03-04T13:57:45.356Z,98984.31
2019-03-04T14:00:17.061Z,99012.63
2019-03-04T14:02:46.522Z,99011.60
2019-03-04T14:05:16.763Z,99023.56
2019-03-04T14:07:46.041Z,98996.69
2019-03-04T14:10:16.648Z,99042.18
2019-03-04T14:12:45.867Z,99031.83
2019-03-04T14:15:23.976Z,99042.42
2019-03-04T14:17:53.324Z,99027.28
2019-03-04T14:20:22.505Z,99053.41
2019-03-04T14:22:57.531Z,99050.47
2019-03-04T14:25:20.920Z,99081.55
2019-03-04T14:27:50.181Z,99059.61
2019-03-04T14:30:19.428Z,99063.98
2019-03-04T14:32:48.642Z,99076.31
2019-03-04T14:35:17.972Z,99080.08
2019-03-04T14:37:47.199Z,99065.53
2019-03-04T14:40:17.581Z,99079.34
2019-03-04T14:42:46.901Z,99081.44
2019-03-04T14:45:18.357Z,99096.00
2019-03-04T14:47:47.615Z,99098.16
2019-03-04T14:50:17.502Z,99096.72
2019-03-04T14:52:46.747Z,99113.47
2019-03-04T14:55:17.452Z,99106.36
2019-03-04T14:57:46.794Z,99123.05
2019-03-04T15:00:18.357Z,99128.70
2019-03-04T15:02:47.599Z,99126.14
2019-03-04T15:05:16.975Z,99136.70
2019-03-04T15:07:46.193Z,99144.84
2019-03-04T15:10:15.422Z,99140.58
2019-03-04T15:12:44.625Z,99136.89
2019-03-04T15:15:14.822Z,99146.61
2019-03-04T15:17:44.033Z,99130.17
2019-03-04T15:20:15.926Z,99118.16
2019-03-04T15:22:45.172Z,99141.70
2019-03-04T15:25:18.423Z,99136.05
2019-03-04T15:27:47.748Z,99159.83
2019-03-04T15:30:17.374Z,99159.19
2019-03-04T15:32:46.565Z,99154.53
2019-03-04T15:35:15.770Z,99160.09
2019-03-04T15:37:44.942Z,99176.06
2019-03-04T15:40:14.210Z,99171.73
2019-03-04T15:42:43.474Z,99174.73
2019-03-04T15:45:12.738Z,99181.65
2019-03-04T15:47:41.995Z,99173.61
2019-03-04T15:50:11.238Z,99183.50
2019-03-04T15:52:40.494Z,99181.04
2019-03-04T15:55:09.776Z,99203.23
2019-03-04T15:57:39.016Z,99237.78
2019-03-04T16:00:09.600Z,99199.68
2019-03-04T16:02:38.840Z,99198.73
2019-03-04T16:05:09.099Z,99209.93
2019-03-04T16:07:38.346Z,99210.84
2019-03-04T16:10:09.665Z,99212.56
2019-03-04T16:12:38.940Z,99209.75
2019-03-04T16:15:10.227Z,99210.23
2019-03-04T16:17:39.528Z,99240.27
2019-03-04T16:20:16.109Z,99240.27
2019-03-04T16:22:40.162Z,99242.12
2019-03-04T16:25:09.697Z,99238.94
2019-03-04T16:27:38.942Z,99247.23
2019-03-04T16:30:16.616Z,99254.36
2019-03-04T16:32:45.943Z,99262.58
2019-03-04T16:35:15.212Z,99305.80
2019-03-04T16:37:44.504Z,99264.91
2019-03-04T16:40:15.186Z,99250.34
2019-03-04T16:42:44.400Z,99276.88
2019-03-04T16:45:15.187Z,99290.07
2019-03-04T16:47:44.445Z,99272.83
2019-03-04T16:50:14.416Z,99290.98
2019-03-04T16:52:44.392Z,99303.33
2019-03-04T16:55:14.470Z,99304.17
2019-03-04T16:57:43.766Z,99308.44
2019-03-04T17:00:15.340Z,99314.28
2019-03-04T17:02:44.612Z,99305.49
2019-03-04T17:05:14.897Z,99316.92
2019-03-04T17:07:44.250Z,99342.35
2019-03-04T17:10:13.886Z,99367.20
2019-03-04T17:12:43.226Z,99351.65
2019-03-04T17:15:14.352Z,99363.98
2019-03-04T17:17:43.754Z,99363.38
2019-03-04T17:20:13.032Z,99360.36
2019-03-04T17:22:42.500Z,99385.73
2019-03-04T17:25:12.232Z,99381.46
2019-03-04T17:27:41.641Z,99383.94
2019-03-04T17:30:12.612Z,99389.06
2019-03-04T17:32:42.118Z,99405.36
2019-03-04T17:35:12.282Z,99417.70
2019-03-04T17:37:41.591Z,99408.16
2019-03-04T17:40:11.758Z,99419.56
2019-03-04T17:42:41.186Z,99434.76
2019-03-04T17:45:12.099Z,99434.91
2019-03-04T17:47:41.382Z,99437.61
2019-03-04T17:50:12.840Z,99448.47
2019-03-04T17:52:42.169Z,99460.70
2019-03-04T17:55:12.513Z,99460.80
2019-03-04T17:57:41.860Z,99472.81
2019-03-04T18:00:12.658Z,99479.84
2019-03-04T18:02:41.854Z,99486.84
2019-03-04T18:05:11.228Z,99491.33
2019-03-04T18:07:40.466Z,99472.09
2019-03-04T18:10:11.885Z,99500.55
2019-03-04T18:12:41.158Z,99491.70
2019-03-04T18:15:13.630Z,99529.08
2019-03-04T18:17:42.948Z,99507.56
2019-03-04T18:20:12.665Z,99502.45
2019-03-04T18:22:42.044Z,99505.52
2019-03-04T18:25:18.152Z,99512.59
2019-03-04T18:27:53.666Z,99513.44
2019-03-04T18:31:04.512Z,99534.23
2019-03-04T18:34:10.603Z,99514.59
2019-03-04T18:37:05.545Z,99525.22
2019-03-04T18:40:26.544Z,99525.84
2019-03-04T18:43:46.624Z,99543.56
2019-03-04T18:47:01.056Z,99546.03
2019-03-04T18:49:30.344Z,99571.01
2019-03-04T18:51:59.678Z,99559.87
2019-03-04T18:54:29.080Z,99553.59
2019-03-04T18:56:58.351Z,99572.23
2019-03-04T18:59:27.626Z,99573.64
2019-03-04T19:01:56.868Z,99566.12
2019-03-04T19:04:26.093Z,99589.59
2019-03-04T19:06:55.382Z,99588.95
2019-03-04T19:09:24.692Z,99590.41
2019-03-04T19:11:53.909Z,99623.86
2019-03-04T19:14:23.192Z,99586.19
2019-03-04T19:16:52.481Z,99587.06
2019-03-04T19:19:21.788Z,99593.70
2019-03-04T19:21:51.071Z,99585.42
2019-03-04T19:24:20.335Z,99594.64
2019-03-04T19:26:49.749Z,99589.37
2019-03-04T19:29:19.004Z,99583.64
2019-03-04T19:31:48.339Z,99608.19
2019-03-04T19:34:17.692Z,99621.18
2019-03-04T19:36:50.170Z,99603.13
2019-03-04T19:39:16.444Z,99609.98
2019-03-04T19:41:45.748Z,99608.11
2019-03-04T19:44:15.004Z,99631.94
2019-03-04T19:46:44.236Z,99628.98
2019-03-04T19:49:13.474Z,99633.36
2019-03-04T19:51:42.693Z,99622.86
2019-03-04T19:54:12.470Z,99627.00
2019-03-04T19:56:41.768Z,99643.97
2019-03-04T19:59:10.997Z,99689.58
2019-03-04T20:01:40.236Z,99620.55
2019-03-04T20:04:09.561Z,99638.59
2019-03-04T20:06:38.796Z,99681.61
2019-03-04T20:09:08.004Z,99668.07
2019-03-04T20:11:37.237Z,99704.84
2019-03-04T20:14:06.488Z,99666.69
2019-03-04T20:16:35.729Z,99672.28
2019-03-04T20:19:08.462Z,99695.38
2019-03-04T20:21:34.712Z,99668.72
2019-03-04T20:24:03.942Z,99676.28
2019-03-04T20:26:33.155Z,99670.09
2019-03-04T20:29:02.430Z,99674.37
2019-03-04T20:31:31.671Z,99674.83
2019-03-04T20:34:01.010Z,99702.42
2019-03-04T20:36:30.192Z,99681.36
2019-03-04T20:38:59.517Z,99695.04
2019-03-04T20:41:28.720Z,99716.05
2019-03-04T20:43:58.018Z,99727.68
2019-03-04T20:46:27.277Z,99722.28
2019-03-04T20:48:56.610Z,99704.98
2019-03-04T20:51:25.827Z,99721.03
2019-03-04T20:53:55.058Z,99713.16
2019-03-04T20:56:24.305Z,99722.12
2019-03-04T20:58:53.631Z,99725.72
2019-03-04T21:01:22.881Z,99725.28
2019-03-04T21:03:52.088Z,99722.56
2019-03-04T21:06:21.303Z,99730.80
2019-03-04T21:08:50.503Z,99741.15
2019-03-04T21:11:19.917Z,99727.13
2019-03-04T21:13:49.122Z,99750.84
2019-03-04T21:16:18.382Z,99735.47
2019-03-04T21:18:47.601Z,99745.62
2019-03-04T21:21:16.883Z,99738.09
2019-03-04T21:23:48.416Z,99735.69
2019-03-04T21:26:21.245Z,99742.27
2019-03-04T21:29:30.319Z,99745.55
2019-03-04T21:32:39.485Z,99745.94
2019-03-04T21:35:47.651Z,99738.37
2019-03-04T21:38:16.884Z,99756.28
2019-03-04T21:41:10.891Z,99757.33
2019-03-04T21:43:44.915Z,99755.93
2019-03-04T21:47:05.393Z,99754.96
2019-03-04T21:49:38.397Z,99759.42
2019-03-04T21:52:49.050Z,99768.97
2019-03-04T21:55:36.535Z,99747.45
2019-03-04T21:58:04.762Z,99796.02
2019-03-04T22:00:39.735Z,99790.94
2019-03-04T22:03:21.419Z,99766.55
2019-03-04T22:05:50.875Z,99778.94
2019-03-04T22:08:19.915Z,99779.27
2019-03-04T22:10:49.087Z,99780.84
2019-03-04T22:13:18.343Z,99794.80
2019-03-04T22:15:47.622Z,99811.74
2019-03-04T22:18:16.801Z,99789.73
2019-03-04T22:20:46.032Z,99809.45
2019-03-04T22:23:15.281Z,99789.01
2019-03-04T22:25:44.533Z,99807.31
2019-03-04T22:28:13.795Z,99793.11
2019-03-04T22:30:43.069Z,99802.53
2019-03-04T22:33:12.261Z,99795.42
2019-03-04T22:35:41.508Z,99796.33
2019-03-04T22:38:10.699Z,99796.92
2019-03-04T22:40:39.982Z,99795.89
2019-03-04T22:43:09.214Z,99789.95
2019-03-04T22:45:38.413Z,99807.65
2019-03-04T22:48:07.680Z,99793.49
2019-03-04T22:50:36.942Z,99792.31
2019-03-04T22:53:06.167Z,99793.58
2019-03-04T22:55:36.964Z,99781.11
2019-03-04T22:58:06.164Z,99779.54
2019-03-04T23:01:16.812Z,99786.05
2019-03-04T23:03:46.697Z,99775.98
2019-03-04T23:06:19.638Z,99790.23
2019-03-04T23:08:48.881Z,99790.11
2019-03-04T23:11:19.297Z,99791.22
2019-03-04T23:13:54.870Z,99792.36
2019-03-04T23:16:27.011Z,99794.70
2019-03-04T23:18:56.229Z,99794.96
2019-03-04T23:21:25.431Z,99797.77
2019-03-04T23:23:54.779Z,99799.67
2019-03-04T23:26:23.974Z,99806.47
2019-03-04T23:28:53.183Z,99802.91
2019-03-04T23:31:22.447Z,99800.56
2019-03-04T23:33:51.661Z,99814.73
2019-03-04T23:36:20.874Z,99813.64
2019-03-04T23:38:50.103Z,99825.36
2019-03-04T23:41:19.463Z,99822.17
2019-03-04T23:43:48.709Z,99824.59
2019-03-04T23:46:18.066Z,99818.06
2019-03-04T23:48:47.325Z,99815.72
2019-03-04T23:51:16.667Z,99811.86
2019-03-04T23:53:45.902Z,99813.27
2019-03-04T23:56:15.128Z,99807.61
2019-03-04T23:58:44.331Z,99812.75
